• Join FlightAware (Why Join?)
  • Login
  • US Flag 
10:59AM EDT


 

Airport Tracker/Info


-or-


 

Live Flight TrackerFlight Track Log ✈ N415JA ✈ 11-Feb-2014 ✈ KMIA - KBOS

Flight Track Log - Related Links

Times and Time Zones

All times are in EST time to prevent confusion due to time zone crossing. See the N415JA flight status page for this flight to view local times or setup timezone preferences in your user account.

Time Position Orientation Groundspeed Altitude Reporting Facility
EST Latitude Longitude Course Direction KTS MPH feet Rate Location/Type
11:06AM 25.8025 -80.2700 78° East 183 211 700  Level Miami Center
11:07AM 25.8047 -80.2586 78° East 195 224 1,000 2,460 Climbing Miami Center
11:08AM 25.8147 -80.1872 81° East 240 276 3,800 2,460 Climbing Miami Center
11:09AM 25.8228 -80.1044 84° East 278 320 6,100 1,500 Climbing Miami Center
11:10AM 25.8881 -80.0808 18° North 263 303 6,900 420 Climbing Miami Center
11:11AM 25.9453 -80.1378 318° Northwest 264 304 7,000 1,320 Climbing Miami Center
11:12AM 26.0211 -80.2092 320° Northwest 281 323 10,200 2,220 Climbing Miami Center
11:13AM 26.0781 -80.2708 316° Northwest 287 330 12,500 2,100 Climbing Miami Center
11:14AM 26.1392 -80.3350 317° Northwest 287 330 14,500 2,040 Climbing Miami Center
11:15AM 26.2044 -80.4019 317° Northwest 303 349 16,600 2,040 Climbing Miami Center
11:16AM 26.2825 -80.4553 329° Northwest 323 372 18,600 1,800 Climbing Miami Center
11:17AM 26.3839 -80.4953 341° North 345 397 20,200 1,560 Climbing Miami Center
11:18AM 26.4728 -80.5283 342° North 363 418 21,800 1,620 Climbing Miami Center
11:19AM 26.5825 -80.5711 341° North 368 423 23,500 1,500 Climbing Miami Center
11:20AM 26.6736 -80.6064 341° North 382 440 24,800 1,560 Climbing Miami Center
11:21AM 26.7850 -80.6519 340° North 387 445 26,700 1,500 Climbing Miami Center
11:22AM 26.8928 -80.6903 342° North 387 445 27,800 1,200 Climbing Miami Center
11:23AM 26.9958 -80.7311 341° North 387 445 29,200 1,200 Climbing Miami Center
11:24AM 27.1033 -80.7719 341° North 393 452 30,300 1,080 Climbing Miami Center
11:25AM 27.2108 -80.8153 340° North 398 458 31,400 1,080 Climbing Miami Center
11:26AM 27.2978 -80.8464 342° North 403 464 32,500 960 Climbing Miami Center
11:27AM 27.4156 -80.8903 342° North 403 464 33,400 1,080 Climbing Miami Center
11:28AM 27.5250 -80.9314 342° North 403 464 34,700 1,020 Climbing Miami Center
11:29AM 27.6303 -80.9728 341° North 403 464 35,500 720 Climbing Miami Center
11:30AM 27.7314 -81.0139 340° North 403 464 36,200 780 Climbing Miami Center
11:31AM 27.8406 -81.0578 340° North 403 464 37,100 1,020 Climbing Miami Center
11:32AM 27.9519 -81.1042 340° North 398 458 38,300 780 Climbing Miami Center
11:33AM 28.0303 -81.1353 341° North 392 451 38,700 300 Climbing Miami Center
11:34AM 28.1397 -81.1747 342° North 379 436 39,000 120 Climbing Miami Center
11:35AM 28.2519 -81.1931 352° North 379 436 39,000  Level Miami Center
11:36AM 28.3661 -81.2094 353° North 396 456 39,000  Level Miami Center
11:37AM 28.4564 -81.2233 352° North 424 488 39,000  Level Jacksonville Center
11:38AM 28.5711 -81.2378 354° North 436 502 39,000  Level Jacksonville Center
11:39AM 28.6861 -81.2550 353° North 424 488 39,000  Level Jacksonville Center
11:40AM 28.8033 -81.2744 352° North 424 488 39,000  Level Jacksonville Center
11:41AM 28.9225 -81.2936 352° North 424 488 39,000  Level Jacksonville Center
11:42AM 29.0439 -81.3083 354° North 429 494 39,000  Level Jacksonville Center
11:43AM 29.1608 -81.3281 352° North 429 494 39,000  Level Jacksonville Center
11:44AM 29.2822 -81.3356 357° North 429 494 39,000  Level Jacksonville Center
11:45AM 29.4075 -81.3406 358° North 429 494 39,000  Level Jacksonville Center
11:46AM 29.5286 -81.3458 358° North 434 499 39,000  Level Jacksonville Center
11:47AM 29.6517 -81.3511 358° North 434 499 39,000  Level Jacksonville Center
11:48AM 29.7750 -81.3564 358° North 441 507 39,000  Level Jacksonville Center
11:49AM 29.9003 -81.3639 357° North 441 507 39,000  Level Jacksonville Center
11:50AM 30.0256 -81.3692 358° North 441 507 39,000  Level Jacksonville Center
11:51AM 30.1489 -81.3769 357° North 441 507 39,000  Level Jacksonville Center
11:52AM 30.2722 -81.3822 358° North 441 507 39,000  Level Jacksonville Center
11:53AM 30.3933 -81.3875 358° North 441 507 39,000  Level Jacksonville Center
11:54AM 30.5186 -81.3950 357° North 441 507 39,000  Level Jacksonville Center
11:55AM 30.6378 -81.4006 358° North 441 507 39,000  Level Jacksonville Center
11:56AM 30.7611 -81.4083 357° North 441 507 39,000  Level Jacksonville Center
11:57AM 30.8800 -81.4136 358° North 436 502 39,000  Level Jacksonville Center
11:58AM 31.0014 -81.4167 359° North 436 502 39,000  Level Jacksonville Center
11:59AM 31.1225 -81.4292 355° North 441 507 39,000  Level Jacksonville Center
12:00PM 31.2583 -81.4319 359° North 444 511 39,000  Level Jacksonville Center
12:01PM 31.3811 -81.4033 11° North 447 514 39,000  Level Jacksonville Center
12:02PM 31.4956 -81.3722 13° North 447 514 39,000  Level Jacksonville Center
12:03PM 31.6308 -81.3308 15° North 447 514 39,000  Level Jacksonville Center
12:04PM 31.7425 -81.2533 31° Northeast 468 539 39,000  Level Jacksonville Center
12:05PM 31.8436 -81.1661 36° Northeast 487 560 39,000  Level Jacksonville Center
12:06PM 31.9675 -81.0608 36° Northeast 493 567 39,000  Level Jacksonville Center
12:07PM 32.0686 -80.9756 36° Northeast 493 567 39,000  Level Jacksonville Center
12:08PM 32.1900 -80.8747 35° Northeast 493 567 39,000  Level Jacksonville Center
12:09PM 32.3014 -80.7764 37° Northeast 488 562 39,000  Level Jacksonville Center
12:10PM 32.4103 -80.6803 37° Northeast 493 567 39,000  Level Jacksonville Center
12:11PM 32.5233 -80.5839 36° Northeast 498 573 39,000 -60 Level Jacksonville Center
12:12PM 32.6364 -80.4850 36° Northeast 498 573 38,900  Descending Jacksonville Center
12:13PM 32.7492 -80.3856 37° Northeast 503 579 39,000  Climbing Jacksonville Center
12:14PM 32.8578 -80.2886 37° Northeast 498 573 39,000  Level Jacksonville Center
12:15PM 32.9625 -80.2014 35° Northeast 504 580 39,000  Level Jacksonville Center
12:16PM 33.0753 -80.1136 33° Northeast 503 579 39,000  Level Jacksonville Center
12:17PM 33.1903 -80.0208 34° Northeast 498 573 39,000  Level Jacksonville Center
12:18PM 33.3031 -79.9328 33° Northeast 493 567 39,000 -60 Level Jacksonville Center
12:19PM 33.4156 -79.8417 34° Northeast 488 562 38,900  Descending Jacksonville Center
12:20PM 33.5281 -79.7508 34° Northeast 488 562 39,000  Climbing Jacksonville Center
12:21PM 33.6406 -79.6594 34° Northeast 488 562 38,900 -60 Descending Jacksonville Center
12:22PM 33.7550 -79.5653 34° Northeast 483 556 38,900  Level Jacksonville Center
12:23PM 33.8672 -79.4736 34° Northeast 483 556 39,000  Climbing Jacksonville Center
12:24PM 33.9897 -79.3786 33° Northeast 483 556 39,000  Level Jacksonville Center
12:25PM 34.1042 -79.2861 34° Northeast 478 550 39,000  Level Jacksonville Center
12:27PM 34.2992 -79.1214 35° Northeast 489 563 39,000  Level Washington Center
12:28PM 34.3911 -79.0447 35° Northeast 496 571 39,000  Level Washington Center
12:29PM 34.5319 -78.9347 33° Northeast 496 571 39,000  Level Washington Center
12:30PM 34.6453 -78.8358 36° Northeast 504 580 39,000  Level Washington Center
12:31PM 34.7606 -78.7394 34° Northeast 504 580 39,000  Level Washington Center
12:32PM 34.8758 -78.6425 35° Northeast 499 574 39,000  Level Washington Center
12:33PM 34.9886 -78.5456 35° Northeast 499 574 39,000  Level Washington Center
12:34PM 35.1058 -78.4458 35° Northeast 499 574 39,000  Level Washington Center
12:35PM 35.2208 -78.3506 34° Northeast 499 574 39,000  Level Washington Center
12:36PM 35.3378 -78.2503 35° Northeast 499 574 39,000  Level Washington Center
12:37PM 35.4547 -78.1522 34° Northeast 499 574 39,000  Level Washington Center
12:38PM 35.5736 -78.0511 35° Northeast 499 574 39,000  Level Washington Center
12:39PM 35.6883 -77.9550 34° Northeast 499 574 39,000  Level Washington Center
12:40PM 35.8031 -77.8558 35° Northeast 499 574 39,000  Level Washington Center
12:41PM 35.9153 -77.7567 36° Northeast 499 574 39,000  Level Washington Center
12:42PM 36.0278 -77.6594 35° Northeast 499 574 39,000  Level Washington Center
12:43PM 36.1400 -77.5544 37° Northeast 499 574 39,000  Level Washington Center
12:44PM 36.2481 -77.4542 37° Northeast 499 574 39,000  Level Washington Center
12:45PM 36.3581 -77.3458 38° Northeast 499 574 39,000  Level Washington Center
12:46PM 36.4722 -77.2425 36° Northeast 499 574 39,000  Level Washington Center
12:47PM 36.5822 -77.1361 38° Northeast 499 574 39,000  Level Washington Center
12:48PM 36.6919 -77.0347 37° Northeast 499 574 39,000  Level Washington Center
12:49PM 36.7911 -76.9406 37° Northeast 499 574 39,000  Level Washington Center
12:50PM 36.9047 -76.8386 36° Northeast 494 568 39,000  Level Washington Center
12:51PM 37.0164 -76.7392 35° Northeast 494 568 39,000  Level Washington Center
12:52PM 37.1278 -76.6392 36° Northeast 489 563 39,000  Level Washington Center
12:53PM 37.2392 -76.5361 36° Northeast 489 563 39,000  Level Washington Center
12:54PM 37.3528 -76.4331 36° Northeast 489 563 39,000  Level Washington Center
12:55PM 37.4661 -76.3297 36° Northeast 495 570 39,000  Level Washington Center
12:56PM 37.5897 -76.2131 37° Northeast 501 577 39,000  Level Washington Center
12:57PM 37.6944 -76.1244 34° Northeast 501 577 39,000  Level Washington Center
12:58PM 37.8181 -76.0019 38° Northeast 496 571 39,000  Level Washington Center
12:59PM 37.9331 -75.8972 36° Northeast 501 577 39,000  Level Washington Center
01:00PM 38.0375 -75.8053 35° Northeast 506 582 39,000  Level Washington Center
01:01PM 38.1586 -75.6867 38° Northeast 506 582 39,000  Level Washington Center
01:02PM 38.2692 -75.5811 37° Northeast 506 582 39,000  Level Washington Center
01:03PM 38.3858 -75.4964 30° Northeast 496 571 39,000  Level Washington Center
01:04PM 38.5086 -75.4431 19° North 465 535 39,000  Level Washington Center
01:05PM 38.6317 -75.3950 17° North 465 535 39,000  Level Washington Center
01:06PM 38.7544 -75.3414 19° North 460 529 39,000  Level Washington Center
01:07PM 38.8775 -75.2956 16° North 460 529 39,000  Level Washington Center
01:08PM 38.9981 -75.2150 27° Northeast 465 535 39,000  Level Washington Center
01:09PM 39.1125 -75.1181 33° Northeast 478 550 39,000  Level Washington Center
01:10PM 39.2267 -75.0183 34° Northeast 491 565 39,000  Level Washington Center
01:11PM 39.3428 -74.9181 34° Northeast 501 577 39,000 -600 Level Washington Center
01:13PM 39.6153 -74.6758 34° Northeast 496 571 37,000 -600 Descending New York Center
01:14PM 39.7311 -74.5797 33° Northeast 491 565 37,000  Level New York Center
01:15PM 39.8233 -74.4981 34° Northeast 496 571 37,000  Level New York Center
01:16PM 39.9519 -74.3831 34° Northeast 501 577 37,000 -60 Level New York Center
01:17PM 40.0678 -74.2806 34° Northeast 501 577 36,900  Descending New York Center
01:18PM 40.1875 -74.1725 35° Northeast 501 577 37,000  Climbing New York Center
01:19PM 40.3011 -74.0639 36° Northeast 506 582 37,000 -840 Level New York Center
01:21PM 40.5522 -73.7886 40° Northeast 510 587 34,200 -1,740 Descending Boston Center
01:22PM 40.6636 -73.6639 40° Northeast 511 588 31,300 -2,760 Descending Boston Center
01:23PM 40.7689 -73.5458 40° Northeast 510 587 28,700 -2,100 Descending Boston Center
01:24PM 40.8947 -73.3925 43° Northeast 509 586 27,000 -840 Descending Boston Center
01:25PM 40.9772 -73.2689 48° Northeast 511 588 27,000  Level Boston Center
01:26PM 41.0717 -73.1281 48° Northeast 513 590 27,000 -1,080 Level Boston Center
01:27PM 41.1639 -72.9889 49° Northeast 506 582 24,900 -1,980 Descending Boston Center
01:28PM 41.2606 -72.8181 53° Northeast 486 559 23,000 -960 Descending Boston Center
01:30PM 41.3189 -72.6553 64° Northeast 495 570 23,000  Level Boston Center
01:31PM 41.3786 -72.4875 65° Northeast 498 573 23,000  Level Boston Center
01:32PM 41.4375 -72.3225 64° Northeast 495 570 23,000  Level Boston Center
01:33PM 41.4947 -72.1589 65° Northeast 489 563 23,000  Level Boston Center
01:34PM 41.5522 -71.9981 64° Northeast 490 564 23,000 -420 Level Boston Center
01:35PM 41.6094 -71.8367 65° Northeast 485 558 22,200 -1,680 Descending Boston Center
01:36PM 41.6644 -71.6753 65° Northeast 480 552 19,700 -2,640 Descending Boston Center
01:37PM 41.7278 -71.4972 64° Northeast 462 532 16,900 -2,460 Descending Boston Center
01:38PM 41.7736 -71.3636 65° Northeast 397 457 14,800 -2,160 Descending Boston Center
01:39PM 41.8222 -71.2222 65° Northeast 387 445 12,600 -1,920 Descending Boston Center
01:40PM 41.8636 -71.1022 65° Northeast 359 413 11,000 -960 Descending Boston Center
01:41PM 41.9167 -71.0000 55° Northeast 355 409 10,900 -780 Descending KA90
01:42PM 41.9667 -70.9333 45° Northeast 283 326 9,600 -1,680 Descending KA90
01:43PM 42.0333 -70.8833 29° Northeast 264 304 7,600 -1,920 Descending KA90
01:44PM 42.1067 -70.8353 26° Northeast 261 300 5,400 -1,800 Descending Boston Center
01:45PM 42.1753 -70.7994 21° North 245 282 3,700 -1,200 Descending Boston Center
01:46PM 42.2200 -70.8139 347° North 223 257 3,000 -480 Descending Boston Center
01:47PM 42.2594 -70.8650 316° Northwest 162 186 2,800 -420 Descending Boston Center
01:48PM 42.2833 -70.8833 330° Northwest 141 162 2,300 -780 Descending KA90
01:48PM 42.3000 -70.9167 304° West 133 153 1,600 -840 Descending KA90
01:49PM 42.3333 -70.9500 324° Northwest 133 153 800 -840 Descending KA90
01:53PM 42.3500 -71.0000 304° West  Level FlightAware Approximate